sensor_id;sensor_type;location;lat;lon;timestamp;P1;P2;P0
64861;PMS5003;62652;42.274;-71.436;2022-09-25T00:00:00;3.73;3.73;2.90
64861;PMS5003;62652;42.274;-71.436;2022-09-25T00:01:00;4.13;4.00;3.00
64861;PMS5003;62652;42.274;-71.436;2022-09-25T00:02:00;3.17;3.17;2.33
64861;PMS5003;62652;42.274;-71.436;2022-09-25T00:03:00;2.93;2.93;2.13
64861;PMS5003;62652;42.274;-71.436;2022-09-25T00:04:00;5.50;5.50;3.77
64861;PMS5003;62652;42.274;-71.436;2022-09-25T00:05:00;6.27;6.27;4.77
64861;PMS5003;62652;42.274;-71.436;2022-09-25T00:06:01;22.13;20.73;14.30
64861;PMS5003;62652;42.274;-71.436;2022-09-25T00:07:00;25.90;25.03;17.87
64861;PMS5003;62652;42.274;-71.436;2022-09-25T00:08:00;19.60;19.60;13.87
64861;PMS5003;62652;42.274;-71.436;2022-09-25T00:09:00;19.67;17.67;11.33
64861;PMS5003;62652;42.274;-71.436;2022-09-25T00:10:00;20.90;19.77;14.27
64861;PMS5003;62652;42.274;-71.436;2022-09-25T00:11:03;19.53;18.67;13.23
64861;PMS5003;62652;42.274;-71.436;2022-09-25T00:12:00;16.63;16.20;12.33
64861;PMS5003;62652;42.274;-71.436;2022-09-25T00:13:00;16.67;16.40;11.97
64861;PMS5003;62652;42.274;-71.436;2022-09-25T00:14:00;20.73;18.93;13.23
64861;PMS5003;62652;42.274;-71.436;2022-09-25T00:15:00;20.60;19.70;14.23
64861;PMS5003;62652;42.274;-71.436;2022-09-25T00:16:00;22.97;22.03;15.60
64861;PMS5003;62652;42.274;-71.436;2022-09-25T00:17:00;21.77;21.33;15.87
64861;PMS5003;62652;42.274;-71.436;2022-09-25T00:18:00;31.77;29.67;19.70
64861;PMS5003;62652;42.274;-71.436;2022-09-25T00:19:00;36.13;31.33;21.17
64861;PMS5003;62652;42.274;-71.436;2022-09-25T00:20:00;25.03;23.07;13.67
64861;PMS5003;62652;42.274;-71.436;2022-09-25T00:21:00;13.20;13.20;9.40
64861;PMS5003;62652;42.274;-71.436;2022-09-25T00:22:00;9.73;9.70;7.40
64861;PMS5003;62652;42.274;-71.436;2022-09-25T00:23:00;8.67;8.33;6.17
64861;PMS5003;62652;42.274;-71.436;2022-09-25T00:24:01;7.40;7.37;5.07
64861;PMS5003;62652;42.274;-71.436;2022-09-25T00:25:00;5.80;5.60;4.50
64861;PMS5003;62652;42.274;-71.436;2022-09-25T00:26:00;6.20;6.20;4.27
64861;PMS5003;62652;42.274;-71.436;2022-09-25T00:27:00;6.83;6.70;5.37
64861;PMS5003;62652;42.274;-71.436;2022-09-25T00:28:00;6.10;5.97;4.67
64861;PMS5003;62652;42.274;-71.436;2022-09-25T00:29:00;6.33;6.23;5.20
64861;PMS5003;62652;42.274;-71.436;2022-09-25T00:30:00;5.50;5.50;4.20
64861;PMS5003;62652;42.274;-71.436;2022-09-25T00:31:00;6.67;6.67;5.43
64861;PMS5003;62652;42.274;-71.436;2022-09-25T00:32:00;6.43;6.43;5.17
64861;PMS5003;62652;42.274;-71.436;2022-09-25T00:33:00;7.53;6.93;5.37
64861;PMS5003;62652;42.274;-71.436;2022-09-25T00:34:01;12.80;12.40;10.07
64861;PMS5003;62652;42.274;-71.436;2022-09-25T00:35:00;18.33;17.33;12.70
64861;PMS5003;62652;42.274;-71.436;2022-09-25T00:36:00;17.37;16.87;12.43
64861;PMS5003;62652;42.274;-71.436;2022-09-25T00:37:00;15.87;15.53;12.63
64861;PMS5003;62652;42.274;-71.436;2022-09-25T00:38:00;15.57;14.77;9.33
64861;PMS5003;62652;42.274;-71.436;2022-09-25T00:39:00;11.87;11.20;9.37
64861;PMS5003;62652;42.274;-71.436;2022-09-25T00:40:00;10.67;10.53;8.67
64861;PMS5003;62652;42.274;-71.436;2022-09-25T00:41:00;7.47;7.37;6.07
64861;PMS5003;62652;42.274;-71.436;2022-09-25T00:42:00;8.57;7.70;5.73
64861;PMS5003;62652;42.274;-71.436;2022-09-25T00:43:00;7.73;6.87;5.50
64861;PMS5003;62652;42.274;-71.436;2022-09-25T00:44:00;7.93;7.93;5.23
64861;PMS5003;62652;42.274;-71.436;2022-09-25T00:45:00;11.33;10.77;7.77
64861;PMS5003;62652;42.274;-71.436;2022-09-25T00:46:00;19.67;18.13;14.93
64861;PMS5003;62652;42.274;-71.436;2022-09-25T00:47:00;18.50;16.50;13.73
64861;PMS5003;62652;42.274;-71.436;2022-09-25T00:48:00;15.80;15.00;12.63
64861;PMS5003;62652;42.274;-71.436;2022-09-25T00:49:01;23.63;22.70;17.10
64861;PMS5003;62652;42.274;-71.436;2022-09-25T00:50:00;27.93;27.40;20.00
64861;PMS5003;62652;42.274;-71.436;2022-09-25T00:51:00;29.17;28.50;21.93
64861;PMS5003;62652;42.274;-71.436;2022-09-25T00:52:01;25.80;24.83;18.77
64861;PMS5003;62652;42.274;-71.436;2022-09-25T00:53:02;14.90;14.73;11.40
64861;PMS5003;62652;42.274;-71.436;2022-09-25T00:54:00;12.67;12.10;9.47
64861;PMS5003;62652;42.274;-71.436;2022-09-25T00:55:00;11.83;11.53;9.43
64861;PMS5003;62652;42.274;-71.436;2022-09-25T00:56:00;12.23;9.80;7.33
64861;PMS5003;62652;42.274;-71.436;2022-09-25T00:57:01;9.73;9.20;6.83
64861;PMS5003;62652;42.274;-71.436;2022-09-25T00:58:00;10.53;9.93;8.17
64861;PMS5003;62652;42.274;-71.436;2022-09-25T00:59:00;9.53;9.53;7.37
64861;PMS5003;62652;42.274;-71.436;2022-09-25T01:00:02;8.03;8.00;5.83
64861;PMS5003;62652;42.274;-71.436;2022-09-25T01:01:00;8.87;8.60;6.20
64861;PMS5003;62652;42.274;-71.436;2022-09-25T01:02:00;10.53;9.43;6.97
64861;PMS5003;62652;42.274;-71.436;2022-09-25T01:03:00;7.77;7.27;5.37
64861;PMS5003;62652;42.274;-71.436;2022-09-25T01:04:00;9.97;9.63;7.47
64861;PMS5003;62652;42.274;-71.436;2022-09-25T01:05:01;10.97;10.57;8.10
64861;PMS5003;62652;42.274;-71.436;2022-09-25T01:06:00;10.30;10.30;7.83
64861;PMS5003;62652;42.274;-71.436;2022-09-25T01:07:00;10.90;10.20;7.57
64861;PMS5003;62652;42.274;-71.436;2022-09-25T01:08:01;9.50;9.50;7.50
64861;PMS5003;62652;42.274;-71.436;2022-09-25T01:09:00;11.13;10.37;8.87
64861;PMS5003;62652;42.274;-71.436;2022-09-25T01:10:00;10.63;10.20;8.00
64861;PMS5003;62652;42.274;-71.436;2022-09-25T01:11:00;11.77;10.57;8.00
64861;PMS5003;62652;42.274;-71.436;2022-09-25T01:12:00;11.37;11.33;9.53
64861;PMS5003;62652;42.274;-71.436;2022-09-25T01:13:00;11.30;10.87;7.33
64861;PMS5003;62652;42.274;-71.436;2022-09-25T01:14:02;11.83;11.83;9.10
64861;PMS5003;62652;42.274;-71.436;2022-09-25T01:15:00;9.43;9.43;7.53
64861;PMS5003;62652;42.274;-71.436;2022-09-25T01:16:03;10.20;9.80;7.73
64861;PMS5003;62652;42.274;-71.436;2022-09-25T01:17:01;11.03;10.63;7.57
64861;PMS5003;62652;42.274;-71.436;2022-09-25T01:18:03;9.90;9.90;7.53
64861;PMS5003;62652;42.274;-71.436;2022-09-25T01:19:03;9.60;9.27;7.90
64861;PMS5003;62652;42.274;-71.436;2022-09-25T01:20:04;10.43;10.23;8.10
64861;PMS5003;62652;42.274;-71.436;2022-09-25T01:21:10;10.37;9.63;7.17
64861;PMS5003;62652;42.274;-71.436;2022-09-25T01:22:03;8.67;8.53;6.87
64861;PMS5003;62652;42.274;-71.436;2022-09-25T01:23:04;9.10;8.30;6.17
64861;PMS5003;62652;42.274;-71.436;2022-09-25T01:24:03;9.40;8.83;6.83
64861;PMS5003;62652;42.274;-71.436;2022-09-25T01:25:03;12.37;11.87;7.83
64861;PMS5003;62652;42.274;-71.436;2022-09-25T01:26:04;11.77;10.57;7.93
64861;PMS5003;62652;42.274;-71.436;2022-09-25T01:27:05;10.37;10.30;8.03
64861;PMS5003;62652;42.274;-71.436;2022-09-25T01:28:05;11.47;10.37;8.00
64861;PMS5003;62652;42.274;-71.436;2022-09-25T01:29:02;12.63;11.37;8.93
64861;PMS5003;62652;42.274;-71.436;2022-09-25T01:30:02;10.03;10.03;7.53
64861;PMS5003;62652;42.274;-71.436;2022-09-25T01:31:01;10.50;10.30;9.23
64861;PMS5003;62652;42.274;-71.436;2022-09-25T01:32:00;9.67;9.17;7.67
64861;PMS5003;62652;42.274;-71.436;2022-09-25T01:33:01;10.07;9.53;7.07
64861;PMS5003;62652;42.274;-71.436;2022-09-25T01:34:01;9.90;9.90;7.80
64861;PMS5003;62652;42.274;-71.436;2022-09-25T01:35:01;12.13;11.70;8.80
64861;PMS5003;62652;42.274;-71.436;2022-09-25T01:36:00;10.23;10.13;8.33
64861;PMS5003;62652;42.274;-71.436;2022-09-25T01:37:01;13.93;13.30;9.63
64861;PMS5003;62652;42.274;-71.436;2022-09-25T01:38:03;12.70;12.70;10.10
64861;PMS5003;62652;42.274;-71.436;2022-09-25T01:39:02;14.63;13.97;11.77
64861;PMS5003;62652;42.274;-71.436;2022-09-25T01:40:03;16.57;16.57;13.57
64861;PMS5003;62652;42.274;-71.436;2022-09-25T01:41:01;19.40;18.67;15.30
64861;PMS5003;62652;42.274;-71.436;2022-09-25T01:42:02;14.07;13.83;11.17
64861;PMS5003;62652;42.274;-71.436;2022-09-25T01:43:01;22.90;22.47;17.70
64861;PMS5003;62652;42.274;-71.436;2022-09-25T01:44:01;22.30;21.60;18.87
64861;PMS5003;62652;42.274;-71.436;2022-09-25T01:45:01;17.37;17.00;12.03
64861;PMS5003;62652;42.274;-71.436;2022-09-25T01:46:00;18.00;16.63;12.30
64861;PMS5003;62652;42.274;-71.436;2022-09-25T01:47:01;13.70;13.37;11.03
64861;PMS5003;62652;42.274;-71.436;2022-09-25T01:48:00;11.03;10.63;8.33
64861;PMS5003;62652;42.274;-71.436;2022-09-25T01:49:01;13.43;11.77;8.63
64861;PMS5003;62652;42.274;-71.436;2022-09-25T01:50:01;10.87;10.87;7.70
64861;PMS5003;62652;42.274;-71.436;2022-09-25T01:51:01;12.57;10.93;7.47
64861;PMS5003;62652;42.274;-71.436;2022-09-25T01:52:02;14.03;13.60;10.77
64861;PMS5003;62652;42.274;-71.436;2022-09-25T01:53:01;12.83;12.83;10.77
64861;PMS5003;62652;42.274;-71.436;2022-09-25T01:54:01;18.10;17.00;12.60
64861;PMS5003;62652;42.274;-71.436;2022-09-25T01:55:04;16.17;14.97;12.00
64861;PMS5003;62652;42.274;-71.436;2022-09-25T01:56:01;16.57;15.53;11.47
64861;PMS5003;62652;42.274;-71.436;2022-09-25T01:57:02;14.23;13.77;11.20
64861;PMS5003;62652;42.274;-71.436;2022-09-25T01:58:01;12.57;12.57;10.27
64861;PMS5003;62652;42.274;-71.436;2022-09-25T01:59:02;12.70;11.67;9.37
64861;PMS5003;62652;42.274;-71.436;2022-09-25T02:00:03;13.03;12.37;9.83
64861;PMS5003;62652;42.274;-71.436;2022-09-25T02:01:00;25.43;24.63;19.40
64861;PMS5003;62652;42.274;-71.436;2022-09-25T02:02:00;17.20;16.60;13.40
64861;PMS5003;62652;42.274;-71.436;2022-09-25T02:03:08;17.97;17.03;13.20
64861;PMS5003;62652;42.274;-71.436;2022-09-25T02:04:01;16.30;15.90;12.70
64861;PMS5003;62652;42.274;-71.436;2022-09-25T02:05:01;12.10;11.20;9.40
64861;PMS5003;62652;42.274;-71.436;2022-09-25T02:06:01;9.97;9.40;8.03
64861;PMS5003;62652;42.274;-71.436;2022-09-25T02:07:01;13.17;13.00;9.77
64861;PMS5003;62652;42.274;-71.436;2022-09-25T02:08:00;16.67;16.43;13.30
64861;PMS5003;62652;42.274;-71.436;2022-09-25T02:09:00;15.07;14.50;11.63
64861;PMS5003;62652;42.274;-71.436;2022-09-25T02:10:02;12.83;12.83;9.90
64861;PMS5003;62652;42.274;-71.436;2022-09-25T02:11:00;12.83;12.53;9.67
64861;PMS5003;62652;42.274;-71.436;2022-09-25T02:12:01;11.83;11.63;8.27
64861;PMS5003;62652;42.274;-71.436;2022-09-25T02:13:01;10.67;10.03;7.70
64861;PMS5003;62652;42.274;-71.436;2022-09-25T02:14:01;9.67;9.30;7.70
64861;PMS5003;62652;42.274;-71.436;2022-09-25T02:15:01;10.37;9.90;7.23
64861;PMS5003;62652;42.274;-71.436;2022-09-25T02:16:01;9.17;8.90;6.80
64861;PMS5003;62652;42.274;-71.436;2022-09-25T02:17:00;7.80;7.67;6.00
64861;PMS5003;62652;42.274;-71.436;2022-09-25T02:18:00;7.73;6.83;5.03
64861;PMS5003;62652;42.274;-71.436;2022-09-25T02:19:00;7.20;7.00;5.47
64861;PMS5003;62652;42.274;-71.436;2022-09-25T02:20:00;7.73;6.97;6.10
64861;PMS5003;62652;42.274;-71.436;2022-09-25T02:21:02;8.57;8.57;6.57
64861;PMS5003;62652;42.274;-71.436;2022-09-25T02:22:01;7.13;6.57;5.37
64861;PMS5003;62652;42.274;-71.436;2022-09-25T02:23:01;5.33;5.33;4.03
64861;PMS5003;62652;42.274;-71.436;2022-09-25T02:24:02;8.37;8.13;5.27
64861;PMS5003;62652;42.274;-71.436;2022-09-25T02:25:02;7.93;6.10;4.87
64861;PMS5003;62652;42.274;-71.436;2022-09-25T02:26:02;6.40;6.40;5.00
64861;PMS5003;62652;42.274;-71.436;2022-09-25T02:27:00;13.37;12.60;8.80
64861;PMS5003;62652;42.274;-71.436;2022-09-25T02:28:00;10.70;10.40;8.50
64861;PMS5003;62652;42.274;-71.436;2022-09-25T02:29:00;13.27;12.17;8.80
64861;PMS5003;62652;42.274;-71.436;2022-09-25T02:30:00;6.87;6.70;5.30
64861;PMS5003;62652;42.274;-71.436;2022-09-25T02:31:01;6.13;5.73;4.27
64861;PMS5003;62652;42.274;-71.436;2022-09-25T02:32:02;8.50;7.47;5.73
64861;PMS5003;62652;42.274;-71.436;2022-09-25T02:33:00;8.27;8.17;5.63
64861;PMS5003;62652;42.274;-71.436;2022-09-25T02:34:00;8.77;8.37;5.83
64861;PMS5003;62652;42.274;-71.436;2022-09-25T02:35:00;7.60;7.60;6.00
64861;PMS5003;62652;42.274;-71.436;2022-09-25T02:36:00;7.73;7.37;5.77
64861;PMS5003;62652;42.274;-71.436;2022-09-25T02:37:00;8.50;8.10;6.23
64861;PMS5003;62652;42.274;-71.436;2022-09-25T02:38:00;8.37;7.97;5.87
64861;PMS5003;62652;42.274;-71.436;2022-09-25T02:39:00;6.53;6.53;5.83
64861;PMS5003;62652;42.274;-71.436;2022-09-25T02:40:00;8.67;8.63;6.13
64861;PMS5003;62652;42.274;-71.436;2022-09-25T02:41:01;9.27;8.43;7.10
64861;PMS5003;62652;42.274;-71.436;2022-09-25T02:42:06;12.17;11.50;9.50
64861;PMS5003;62652;42.274;-71.436;2022-09-25T02:43:02;11.07;10.70;8.97
64861;PMS5003;62652;42.274;-71.436;2022-09-25T02:44:03;12.73;12.73;10.40
64861;PMS5003;62652;42.274;-71.436;2022-09-25T02:45:05;13.73;13.73;10.73
64861;PMS5003;62652;42.274;-71.436;2022-09-25T02:46:02;10.97;10.97;9.47
64861;PMS5003;62652;42.274;-71.436;2022-09-25T02:47:04;12.27;11.00;8.97
64861;PMS5003;62652;42.274;-71.436;2022-09-25T02:48:02;9.13;8.90;7.37
64861;PMS5003;62652;42.274;-71.436;2022-09-25T02:49:02;21.83;20.60;13.60
64861;PMS5003;62652;42.274;-71.436;2022-09-25T02:50:02;32.90;31.03;20.00
64861;PMS5003;62652;42.274;-71.436;2022-09-25T02:51:01;28.30;26.33;17.27
64861;PMS5003;62652;42.274;-71.436;2022-09-25T02:52:01;21.60;19.00;14.00
64861;PMS5003;62652;42.274;-71.436;2022-09-25T02:53:02;17.73;16.97;12.13
64861;PMS5003;62652;42.274;-71.436;2022-09-25T02:54:03;19.30;18.40;12.00
64861;PMS5003;62652;42.274;-71.436;2022-09-25T02:55:02;21.03;17.37;12.80
64861;PMS5003;62652;42.274;-71.436;2022-09-25T02:56:01;18.33;17.17;12.70
64861;PMS5003;62652;42.274;-71.436;2022-09-25T02:57:01;19.30;18.80;14.80
64861;PMS5003;62652;42.274;-71.436;2022-09-25T02:58:02;19.43;18.90;15.07
64861;PMS5003;62652;42.274;-71.436;2022-09-25T02:59:01;20.13;19.93;14.30
64861;PMS5003;62652;42.274;-71.436;2022-09-25T03:00:02;19.07;19.07;14.33
64861;PMS5003;62652;42.274;-71.436;2022-09-25T03:01:00;18.97;18.10;14.00
64861;PMS5003;62652;42.274;-71.436;2022-09-25T03:02:00;28.37;26.63;20.00
64861;PMS5003;62652;42.274;-71.436;2022-09-25T03:03:00;26.93;24.97;17.97
64861;PMS5003;62652;42.274;-71.436;2022-09-25T03:04:00;20.13;19.27;13.63
64861;PMS5003;62652;42.274;-71.436;2022-09-25T03:05:00;12.83;12.83;10.07
64861;PMS5003;62652;42.274;-71.436;2022-09-25T03:06:00;11.93;11.43;8.23
64861;PMS5003;62652;42.274;-71.436;2022-09-25T03:07:00;7.60;7.60;6.63
64861;PMS5003;62652;42.274;-71.436;2022-09-25T03:08:00;12.77;12.77;8.80
64861;PMS5003;62652;42.274;-71.436;2022-09-25T03:09:00;8.33;8.23;6.10
64861;PMS5003;62652;42.274;-71.436;2022-09-25T03:10:00;7.43;7.40;6.20
64861;PMS5003;62652;42.274;-71.436;2022-09-25T03:11:00;7.83;7.77;5.90
64861;PMS5003;62652;42.274;-71.436;2022-09-25T03:12:00;6.70;6.70;4.73
64861;PMS5003;62652;42.274;-71.436;2022-09-25T03:14:01;6.20;6.20;4.40
64861;PMS5003;62652;42.274;-71.436;2022-09-25T03:15:00;8.73;8.23;6.20
64861;PMS5003;62652;42.274;-71.436;2022-09-25T03:16:01;9.83;9.57;6.50
64861;PMS5003;62652;42.274;-71.436;2022-09-25T03:17:00;12.27;11.63;8.60
64861;PMS5003;62652;42.274;-71.436;2022-09-25T03:18:00;11.63;10.70;7.67
64861;PMS5003;62652;42.274;-71.436;2022-09-25T03:19:00;12.60;11.67;7.67
64861;PMS5003;62652;42.274;-71.436;2022-09-25T03:20:00;9.30;8.43;6.70
64861;PMS5003;62652;42.274;-71.436;2022-09-25T03:21:00;8.33;8.33;6.63
64861;PMS5003;62652;42.274;-71.436;2022-09-25T03:22:00;9.57;9.37;6.73
64861;PMS5003;62652;42.274;-71.436;2022-09-25T03:23:00;9.90;9.00;6.90
64861;PMS5003;62652;42.274;-71.436;2022-09-25T03:24:00;11.53;10.33;7.93
64861;PMS5003;62652;42.274;-71.436;2022-09-25T03:25:00;8.80;8.50;6.70
64861;PMS5003;62652;42.274;-71.436;2022-09-25T03:26:00;8.37;8.37;6.80
64861;PMS5003;62652;42.274;-71.436;2022-09-25T03:27:00;10.50;10.07;6.00
64861;PMS5003;62652;42.274;-71.436;2022-09-25T03:28:00;8.30;8.30;5.77
64861;PMS5003;62652;42.274;-71.436;2022-09-25T03:29:00;9.17;8.60;6.13
64861;PMS5003;62652;42.274;-71.436;2022-09-25T03:30:00;9.33;8.23;6.13
64861;PMS5003;62652;42.274;-71.436;2022-09-25T03:31:01;8.60;7.97;5.90
64861;PMS5003;62652;42.274;-71.436;2022-09-25T03:32:00;8.70;8.60;5.93
64861;PMS5003;62652;42.274;-71.436;2022-09-25T03:33:00;9.87;8.80;5.97
64861;PMS5003;62652;42.274;-71.436;2022-09-25T03:34:00;7.53;6.90;5.17
64861;PMS5003;62652;42.274;-71.436;2022-09-25T03:35:00;7.83;7.13;5.63
64861;PMS5003;62652;42.274;-71.436;2022-09-25T03:36:01;6.07;6.07;4.77
64861;PMS5003;62652;42.274;-71.436;2022-09-25T03:37:00;8.40;8.00;5.80
64861;PMS5003;62652;42.274;-71.436;2022-09-25T03:38:00;4.57;4.57;3.43
64861;PMS5003;62652;42.274;-71.436;2022-09-25T03:39:00;7.63;7.30;5.10
64861;PMS5003;62652;42.274;-71.436;2022-09-25T03:40:00;6.23;6.13;4.57
64861;PMS5003;62652;42.274;-71.436;2022-09-25T03:41:00;6.87;6.20;4.83
64861;PMS5003;62652;42.274;-71.436;2022-09-25T03:42:00;5.73;5.70;4.13
64861;PMS5003;62652;42.274;-71.436;2022-09-25T03:43:00;6.00;5.90;4.87
64861;PMS5003;62652;42.274;-71.436;2022-09-25T03:44:00;6.23;6.13;4.27
64861;PMS5003;62652;42.274;-71.436;2022-09-25T03:45:00;6.63;6.20;4.67
64861;PMS5003;62652;42.274;-71.436;2022-09-25T03:46:00;5.97;5.97;4.27
64861;PMS5003;62652;42.274;-71.436;2022-09-25T03:47:00;6.23;6.17;4.97
64861;PMS5003;62652;42.274;-71.436;2022-09-25T03:48:00;7.70;7.07;5.13
64861;PMS5003;62652;42.274;-71.436;2022-09-25T03:49:00;7.33;7.33;5.40
64861;PMS5003;62652;42.274;-71.436;2022-09-25T03:50:00;7.60;7.20;5.70
64861;PMS5003;62652;42.274;-71.436;2022-09-25T03:51:00;11.60;11.30;8.00
64861;PMS5003;62652;42.274;-71.436;2022-09-25T03:52:00;10.97;10.47;7.90
64861;PMS5003;62652;42.274;-71.436;2022-09-25T03:53:00;7.40;7.10;5.60
64861;PMS5003;62652;42.274;-71.436;2022-09-25T03:54:00;6.67;6.67;5.00
64861;PMS5003;62652;42.274;-71.436;2022-09-25T03:55:00;6.23;6.10;4.87
64861;PMS5003;62652;42.274;-71.436;2022-09-25T03:56:00;7.63;7.13;5.60
64861;PMS5003;62652;42.274;-71.436;2022-09-25T03:57:00;6.47;5.77;4.47
64861;PMS5003;62652;42.274;-71.436;2022-09-25T03:58:00;6.17;6.17;3.90
64861;PMS5003;62652;42.274;-71.436;2022-09-25T03:59:00;10.77;10.70;6.93
64861;PMS5003;62652;42.274;-71.436;2022-09-25T04:00:00;8.63;8.53;6.40
64861;PMS5003;62652;42.274;-71.436;2022-09-25T04:01:00;10.97;10.50;7.60
64861;PMS5003;62652;42.274;-71.436;2022-09-25T04:02:00;9.87;9.10;6.60
64861;PMS5003;62652;42.274;-71.436;2022-09-25T04:03:00;7.90;7.23;5.17
64861;PMS5003;62652;42.274;-71.436;2022-09-25T04:04:00;5.37;5.37;3.97
64861;PMS5003;62652;42.274;-71.436;2022-09-25T04:05:00;6.07;5.97;4.87
64861;PMS5003;62652;42.274;-71.436;2022-09-25T04:06:00;7.07;7.07;4.87
64861;PMS5003;62652;42.274;-71.436;2022-09-25T04:07:00;6.90;6.90;5.20
64861;PMS5003;62652;42.274;-71.436;2022-09-25T04:08:00;7.20;6.70;4.70
64861;PMS5003;62652;42.274;-71.436;2022-09-25T04:09:00;7.57;6.73;5.17
64861;PMS5003;62652;42.274;-71.436;2022-09-25T04:10:00;6.10;6.10;4.17
64861;PMS5003;62652;42.274;-71.436;2022-09-25T04:11:00;6.10;5.97;3.67
64861;PMS5003;62652;42.274;-71.436;2022-09-25T04:12:00;6.77;5.83;4.13
64861;PMS5003;62652;42.274;-71.436;2022-09-25T04:13:00;5.60;5.60;3.90
64861;PMS5003;62652;42.274;-71.436;2022-09-25T04:14:00;6.40;5.43;4.57
64861;PMS5003;62652;42.274;-71.436;2022-09-25T04:15:00;4.30;4.30;3.60
64861;PMS5003;62652;42.274;-71.436;2022-09-25T04:16:00;6.33;6.07;4.57
64861;PMS5003;62652;42.274;-71.436;2022-09-25T04:17:00;4.60;4.20;3.27
64861;PMS5003;62652;42.274;-71.436;2022-09-25T04:18:00;5.77;5.77;4.20
64861;PMS5003;62652;42.274;-71.436;2022-09-25T04:19:00;6.70;6.70;4.60
64861;PMS5003;62652;42.274;-71.436;2022-09-25T04:20:00;4.53;4.53;3.67
64861;PMS5003;62652;42.274;-71.436;2022-09-25T04:21:00;6.33;5.67;4.77
64861;PMS5003;62652;42.274;-71.436;2022-09-25T04:22:00;5.93;5.90;4.80
64861;PMS5003;62652;42.274;-71.436;2022-09-25T04:23:00;5.80;5.80;4.07
64861;PMS5003;62652;42.274;-71.436;2022-09-25T04:24:00;6.00;6.00;5.00
64861;PMS5003;62652;42.274;-71.436;2022-09-25T04:25:00;7.53;7.10;5.17
64861;PMS5003;62652;42.274;-71.436;2022-09-25T04:26:00;8.00;7.43;5.97
64861;PMS5003;62652;42.274;-71.436;2022-09-25T04:27:00;7.40;7.40;5.67
64861;PMS5003;62652;42.274;-71.436;2022-09-25T04:28:00;6.80;6.80;5.50
64861;PMS5003;62652;42.274;-71.436;2022-09-25T04:29:00;6.87;6.23;4.53
64861;PMS5003;62652;42.274;-71.436;2022-09-25T04:30:00;5.90;5.67;4.30
64861;PMS5003;62652;42.274;-71.436;2022-09-25T04:31:00;6.47;6.47;5.47
64861;PMS5003;62652;42.274;-71.436;2022-09-25T04:32:00;6.17;5.90;4.07
64861;PMS5003;62652;42.274;-71.436;2022-09-25T04:33:00;7.00;6.07;4.67
64861;PMS5003;62652;42.274;-71.436;2022-09-25T04:34:00;5.97;5.27;3.17
64861;PMS5003;62652;42.274;-71.436;2022-09-25T04:35:00;6.97;6.10;4.23
64861;PMS5003;62652;42.274;-71.436;2022-09-25T04:36:00;6.93;6.20;5.07
64861;PMS5003;62652;42.274;-71.436;2022-09-25T04:37:00;7.53;7.07;5.60
64861;PMS5003;62652;42.274;-71.436;2022-09-25T04:38:00;6.50;6.50;4.90
64861;PMS5003;62652;42.274;-71.436;2022-09-25T04:39:00;6.10;5.93;4.53
64861;PMS5003;62652;42.274;-71.436;2022-09-25T04:40:00;5.57;5.57;3.73
64861;PMS5003;62652;42.274;-71.436;2022-09-25T04:41:00;6.57;6.03;5.00
64861;PMS5003;62652;42.274;-71.436;2022-09-25T04:42:00;8.30;7.43;5.80
64861;PMS5003;62652;42.274;-71.436;2022-09-25T04:43:01;8.37;7.43;5.80
64861;PMS5003;62652;42.274;-71.436;2022-09-25T04:44:03;7.53;7.43;5.43
64861;PMS5003;62652;42.274;-71.436;2022-09-25T04:45:00;6.77;6.43;5.07
64861;PMS5003;62652;42.274;-71.436;2022-09-25T04:46:00;7.70;6.67;4.43
64861;PMS5003;62652;42.274;-71.436;2022-09-25T04:47:00;6.97;6.97;5.90
64861;PMS5003;62652;42.274;-71.436;2022-09-25T04:48:00;6.97;6.00;5.00
64861;PMS5003;62652;42.274;-71.436;2022-09-25T04:49:00;6.60;6.60;4.97
64861;PMS5003;62652;42.274;-71.436;2022-09-25T04:50:00;6.60;6.60;4.77
64861;PMS5003;62652;42.274;-71.436;2022-09-25T04:51:00;5.63;5.53;4.07
64861;PMS5003;62652;42.274;-71.436;2022-09-25T04:52:00;7.33;6.87;4.90
64861;PMS5003;62652;42.274;-71.436;2022-09-25T04:53:00;6.83;6.57;5.47
64861;PMS5003;62652;42.274;-71.436;2022-09-25T04:54:00;6.27;6.27;4.63
64861;PMS5003;62652;42.274;-71.436;2022-09-25T04:55:00;7.00;7.00;4.93
64861;PMS5003;62652;42.274;-71.436;2022-09-25T04:56:00;7.40;6.93;4.87
64861;PMS5003;62652;42.274;-71.436;2022-09-25T04:57:00;7.20;7.10;5.43
64861;PMS5003;62652;42.274;-71.436;2022-09-25T04:58:00;6.87;6.13;4.47
64861;PMS5003;62652;42.274;-71.436;2022-09-25T04:59:00;5.90;5.90;4.17
64861;PMS5003;62652;42.274;-71.436;2022-09-25T05:00:00;8.37;7.27;5.20
64861;PMS5003;62652;42.274;-71.436;2022-09-25T05:01:01;8.10;8.00;5.47
64861;PMS5003;62652;42.274;-71.436;2022-09-25T05:02:00;6.67;6.67;5.30
64861;PMS5003;62652;42.274;-71.436;2022-09-25T05:03:01;7.23;6.73;4.57
64861;PMS5003;62652;42.274;-71.436;2022-09-25T05:04:00;7.10;6.57;4.17
64861;PMS5003;62652;42.274;-71.436;2022-09-25T05:05:00;7.03;6.93;5.20
64861;PMS5003;62652;42.274;-71.436;2022-09-25T05:06:00;6.50;6.33;4.60
64861;PMS5003;62652;42.274;-71.436;2022-09-25T05:07:00;6.67;6.47;4.13
64861;PMS5003;62652;42.274;-71.436;2022-09-25T05:08:00;7.87;7.77;5.67
64861;PMS5003;62652;42.274;-71.436;2022-09-25T05:09:00;5.13;5.13;4.43
64861;PMS5003;62652;42.274;-71.436;2022-09-25T05:10:00;5.23;5.23;4.10
64861;PMS5003;62652;42.274;-71.436;2022-09-25T05:11:00;7.23;5.80;4.80
64861;PMS5003;62652;42.274;-71.436;2022-09-25T05:12:00;6.53;6.27;4.63
64861;PMS5003;62652;42.274;-71.436;2022-09-25T05:13:00;6.90;6.30;5.27
64861;PMS5003;62652;42.274;-71.436;2022-09-25T05:14:00;6.57;6.03;4.37
64861;PMS5003;62652;42.274;-71.436;2022-09-25T05:15:00;6.87;6.17;5.23
64861;PMS5003;62652;42.274;-71.436;2022-09-25T05:16:00;7.53;6.50;4.80
64861;PMS5003;62652;42.274;-71.436;2022-09-25T05:17:00;8.93;8.77;6.97
64861;PMS5003;62652;42.274;-71.436;2022-09-25T05:18:00;5.87;5.87;4.77
64861;PMS5003;62652;42.274;-71.436;2022-09-25T05:19:00;7.20;7.20;5.13
64861;PMS5003;62652;42.274;-71.436;2022-09-25T05:20:00;6.97;6.70;5.37
64861;PMS5003;62652;42.274;-71.436;2022-09-25T05:21:02;6.03;5.90;4.83
64861;PMS5003;62652;42.274;-71.436;2022-09-25T05:22:00;6.47;6.47;5.00
64861;PMS5003;62652;42.274;-71.436;2022-09-25T05:23:00;7.10;7.00;5.83
64861;PMS5003;62652;42.274;-71.436;2022-09-25T05:24:00;4.83;4.83;3.60
64861;PMS5003;62652;42.274;-71.436;2022-09-25T05:25:00;6.57;6.43;4.43
64861;PMS5003;62652;42.274;-71.436;2022-09-25T05:26:00;7.33;7.00;4.67
64861;PMS5003;62652;42.274;-71.436;2022-09-25T05:27:00;5.73;5.73;4.53
64861;PMS5003;62652;42.274;-71.436;2022-09-25T05:28:00;5.90;5.90;4.47
64861;PMS5003;62652;42.274;-71.436;2022-09-25T05:29:00;6.67;6.67;4.90
64861;PMS5003;62652;42.274;-71.436;2022-09-25T05:30:00;5.87;4.23;2.50
64861;PMS5003;62652;42.274;-71.436;2022-09-25T05:31:00;4.53;4.53;2.90
64861;PMS5003;62652;42.274;-71.436;2022-09-25T05:32:00;7.07;7.00;4.27
64861;PMS5003;62652;42.274;-71.436;2022-09-25T05:33:00;6.97;6.73;4.70
64861;PMS5003;62652;42.274;-71.436;2022-09-25T05:34:00;6.90;6.30;5.03
64861;PMS5003;62652;42.274;-71.436;2022-09-25T05:35:00;5.57;5.57;4.47
64861;PMS5003;62652;42.274;-71.436;2022-09-25T05:36:00;5.23;4.87;3.60
64861;PMS5003;62652;42.274;-71.436;2022-09-25T05:37:00;4.97;4.97;4.27